Time;durP1;ratioP1;P1;durP2;ratioP2;P2;SDS_P1;SDS_P2;PMS_P1;PMS_P2;Temp;Humidity;BMP_temperature;BMP_pressure;BME280_temperature;BME280_humidity;BME280_pressure;Samples;Min_cycle;Max_cycle;Signal;HPM_P1;HPM_P2
2021/09/12 00:01:23;;;;;;;;;;;22.80;56.20;;;;;;491538;240;1202;-68
2021/09/12 00:03:25;;;;;;;;;;;22.80;56.10;;;;;;491566;240;1236;-68
2021/09/12 00:05:25;;;;;;;;;;;22.40;57.20;;;;;;491672;240;1432;-68
2021/09/12 00:07:27;;;;;;;;;;;22.20;57.90;;;;;;491542;240;1172;-68
2021/09/12 00:09:28;;;;;;;;;;;22.10;58.30;;;;;;491678;240;1011;-67
2021/09/12 00:11:29;;;;;;;;;;;22.20;58.20;;;;;;491621;240;1312;-67
2021/09/12 00:13:30;;;;;;;;;;;22.10;58.30;;;;;;491677;240;1153;-68
2021/09/12 00:15:32;;;;;;;;;;;22.00;58.60;;;;;;491681;240;1131;-68
2021/09/12 00:17:33;;;;;;;;;;;22.00;58.50;;;;;;491573;240;1138;-68
2021/09/12 00:19:34;;;;;;;;;;;22.00;58.60;;;;;;491664;240;2180;-67
2021/09/12 00:21:36;;;;;;;;;;;22.00;58.70;;;;;;491607;240;1135;-67
2021/09/12 00:23:37;;;;;;;;;;;21.90;58.70;;;;;;491613;240;1028;-67
2021/09/12 00:25:38;;;;;;;;;;;21.90;58.70;;;;;;491626;240;943;-68
2021/09/12 00:27:40;;;;;;;;;;;22.00;58.70;;;;;;491557;240;1181;-67
2021/09/12 00:29:41;;;;;;;;;;;21.90;58.70;;;;;;491634;240;1048;-68
2021/09/12 00:31:42;;;;;;;;;;;21.90;58.80;;;;;;491486;240;1169;-68
2021/09/12 00:33:44;;;;;;;;;;;22.00;58.80;;;;;;491654;240;969;-68
2021/09/12 00:35:45;;;;;;;;;;;21.90;58.80;;;;;;491571;240;1238;-67
2021/09/12 00:37:47;;;;;;;;;;;21.90;58.70;;;;;;491504;240;1118;-68
2021/09/12 00:39:48;;;;;;;;;;;21.90;58.70;;;;;;491624;240;2109;-68
2021/09/12 00:41:49;;;;;;;;;;;21.90;58.70;;;;;;491642;240;1306;-67
2021/09/12 00:43:50;;;;;;;;;;;21.90;58.80;;;;;;491664;240;918;-67
2021/09/12 00:45:52;;;;;;;;;;;21.90;58.80;;;;;;491596;240;1201;-68
2021/09/12 00:47:53;;;;;;;;;;;21.90;58.90;;;;;;491606;240;955;-68
2021/09/12 00:49:54;;;;;;;;;;;21.90;58.90;;;;;;491643;240;1143;-68
2021/09/12 00:51:56;;;;;;;;;;;21.90;58.90;;;;;;491568;240;1134;-68
2021/09/12 00:53:58;;;;;;;;;;;21.90;58.70;;;;;;491643;240;958;-68
2021/09/12 00:56:00;;;;;;;;;;;21.90;58.80;;;;;;491559;240;1403;-68
2021/09/12 00:58:01;;;;;;;;;;;21.90;58.80;;;;;;491580;240;1462;-68
2021/09/12 01:00:02;;;;;;;;;;;21.90;58.80;;;;;;491686;240;2128;-68
2021/09/12 01:02:03;;;;;;;;;;;21.90;58.80;;;;;;491658;240;1207;-67
2021/09/12 01:04:04;;;;;;;;;;;21.80;58.80;;;;;;491660;240;992;-68
2021/09/12 01:06:06;;;;;;;;;;;21.80;58.90;;;;;;491587;240;1209;-68
2021/09/12 01:08:07;;;;;;;;;;;21.90;58.80;;;;;;491512;240;978;-68
2021/09/12 01:10:08;;;;;;;;;;;21.80;58.90;;;;;;491723;240;1025;-67
2021/09/12 01:12:10;;;;;;;;;;;21.80;59.00;;;;;;491622;240;1192;-68
2021/09/12 01:14:13;;;;;;;;;;;22.00;58.80;;;;;;491645;240;1089;-68
2021/09/12 01:16:12;;;;;;;;;;;21.80;58.70;;;;;;491712;240;1508;-68
2021/09/12 01:18:14;;;;;;;;;;;21.80;58.80;;;;;;491667;240;1100;-68
2021/09/12 01:20:15;;;;;;;;;;;21.90;58.80;;;;;;491625;240;2117;-68
2021/09/12 01:22:16;;;;;;;;;;;21.80;58.90;;;;;;491527;240;1162;-68
2021/09/12 01:24:18;;;;;;;;;;;21.80;58.90;;;;;;491616;240;971;-67
2021/09/12 01:26:19;;;;;;;;;;;21.80;58.90;;;;;;491602;240;1091;-67
2021/09/12 01:28:20;;;;;;;;;;;21.80;58.90;;;;;;491609;240;1059;-68
2021/09/12 01:30:22;;;;;;;;;;;21.80;58.90;;;;;;491613;240;1050;-68
2021/09/12 01:32:23;;;;;;;;;;;21.80;58.70;;;;;;491575;240;1046;-67
2021/09/12 01:34:24;;;;;;;;;;;21.80;58.70;;;;;;491676;240;949;-68
2021/09/12 01:36:26;;;;;;;;;;;21.80;58.80;;;;;;491530;240;1172;-68
2021/09/12 01:38:27;;;;;;;;;;;21.80;58.70;;;;;;491610;240;1036;-68
2021/09/12 01:40:28;;;;;;;;;;;21.80;58.70;;;;;;491634;240;2192;-68
2021/09/12 01:42:29;;;;;;;;;;;21.80;58.90;;;;;;491643;240;1205;-68
2021/09/12 01:44:31;;;;;;;;;;;21.80;58.90;;;;;;491672;240;970;-68
2021/09/12 01:46:32;;;;;;;;;;;21.80;58.80;;;;;;491564;240;1132;-67
2021/09/12 01:48:33;;;;;;;;;;;21.80;58.80;;;;;;491611;240;1023;-68
2021/09/12 01:50:35;;;;;;;;;;;21.70;58.90;;;;;;491603;240;1168;-68
2021/09/12 01:52:36;;;;;;;;;;;21.70;59.00;;;;;;491690;240;982;-68
2021/09/12 01:54:37;;;;;;;;;;;21.70;58.90;;;;;;491647;240;1150;-69
2021/09/12 01:56:39;;;;;;;;;;;21.70;58.80;;;;;;491607;240;1156;-68
2021/09/12 01:58:40;;;;;;;;;;;21.80;58.80;;;;;;491694;240;1075;-67
2021/09/12 02:00:41;;;;;;;;;;;21.80;58.70;;;;;;491599;240;2121;-68
2021/09/12 02:02:43;;;;;;;;;;;22.40;58.10;;;;;;491578;240;1068;-68
2021/09/12 02:04:44;;;;;;;;;;;22.10;57.10;;;;;;491630;240;947;-68
2021/09/12 02:06:45;;;;;;;;;;;21.90;58.20;;;;;;491392;240;1294;-68
2021/09/12 02:08:47;;;;;;;;;;;21.80;58.60;;;;;;491629;240;1087;-68
2021/09/12 02:10:48;;;;;;;;;;;21.80;58.60;;;;;;491531;240;1131;-67
2021/09/12 02:12:49;;;;;;;;;;;21.90;58.60;;;;;;491584;240;1111;-68
2021/09/12 02:14:51;;;;;;;;;;;21.90;58.60;;;;;;491635;240;1064;-68
2021/09/12 02:16:52;;;;;;;;;;;21.90;58.50;;;;;;491591;240;1226;-68
2021/09/12 02:18:53;;;;;;;;;;;21.80;58.70;;;;;;491651;240;1046;-68
2021/09/12 02:20:55;;;;;;;;;;;21.90;58.60;;;;;;491567;240;2113;-67
2021/09/12 02:22:56;;;;;;;;;;;21.80;58.60;;;;;;491636;240;1055;-68
2021/09/12 02:24:57;;;;;;;;;;;21.80;58.80;;;;;;491633;240;1021;-68
2021/09/12 02:26:59;;;;;;;;;;;21.80;58.70;;;;;;491589;240;1225;-67
2021/09/12 02:29:00;;;;;;;;;;;21.80;58.60;;;;;;491598;240;1068;-68
2021/09/12 02:31:01;;;;;;;;;;;21.80;58.50;;;;;;491602;240;1083;-67
2021/09/12 02:33:02;;;;;;;;;;;21.80;58.50;;;;;;491647;240;957;-68
2021/09/12 02:35:04;;;;;;;;;;;21.90;58.50;;;;;;491657;240;1002;-68
2021/09/12 02:37:05;;;;;;;;;;;21.90;58.50;;;;;;491496;240;1235;-67
2021/09/12 02:39:06;;;;;;;;;;;21.80;58.50;;;;;;491676;240;1129;-68
2021/09/12 02:41:08;;;;;;;;;;;21.80;58.70;;;;;;491556;240;2191;-67
2021/09/12 02:43:09;;;;;;;;;;;21.90;58.50;;;;;;491546;240;1064;-68
2021/09/12 02:45:10;;;;;;;;;;;21.80;58.40;;;;;;491629;240;1515;-68
2021/09/12 02:47:12;;;;;;;;;;;22.10;58.00;;;;;;491556;240;1077;-67
2021/09/12 02:49:13;;;;;;;;;;;21.90;58.20;;;;;;491629;240;942;-68
2021/09/12 02:51:14;;;;;;;;;;;21.80;58.40;;;;;;491592;240;1161;-68
2021/09/12 02:53:16;;;;;;;;;;;22.00;58.10;;;;;;491551;240;1039;-68
2021/09/12 02:55:17;;;;;;;;;;;22.10;57.60;;;;;;491620;240;1047;-67
2021/09/12 02:57:18;;;;;;;;;;;22.10;57.70;;;;;;491543;240;1153;-68
2021/09/12 02:59:20;;;;;;;;;;;22.00;57.80;;;;;;491626;240;959;-68
2021/09/12 03:01:21;;;;;;;;;;;22.10;57.70;;;;;;491665;240;2184;-68
2021/09/12 03:03:22;;;;;;;;;;;22.00;57.80;;;;;;491624;240;994;-68
2021/09/12 03:05:24;;;;;;;;;;;22.00;57.80;;;;;;491646;240;951;-68
2021/09/12 03:07:25;;;;;;;;;;;22.00;57.80;;;;;;491460;240;1276;-68
2021/09/12 03:09:26;;;;;;;;;;;21.90;58.00;;;;;;491663;240;1097;-68
2021/09/12 03:11:28;;;;;;;;;;;21.90;58.00;;;;;;491678;240;1076;-68
2021/09/12 03:13:29;;;;;;;;;;;21.80;58.30;;;;;;491652;240;1066;-67
2021/09/12 03:15:30;;;;;;;;;;;21.80;58.40;;;;;;491598;240;1096;-68
2021/09/12 03:17:31;;;;;;;;;;;21.80;58.30;;;;;;491651;240;1131;-68
2021/09/12 03:19:33;;;;;;;;;;;21.70;58.50;;;;;;491667;240;1070;-68
2021/09/12 03:21:34;;;;;;;;;;;21.80;58.50;;;;;;491565;240;2120;-67
2021/09/12 03:23:35;;;;;;;;;;;21.80;58.40;;;;;;491629;240;1195;-68
2021/09/12 03:25:37;;;;;;;;;;;21.80;58.50;;;;;;491600;240;978;-68
2021/09/12 03:27:38;;;;;;;;;;;21.70;58.50;;;;;;491613;240;1167;-68
2021/09/12 03:29:39;;;;;;;;;;;21.80;58.50;;;;;;491685;240;966;-68
2021/09/12 03:31:41;;;;;;;;;;;21.80;58.40;;;;;;491556;240;1372;-67
2021/09/12 03:33:42;;;;;;;;;;;21.70;58.40;;;;;;491619;240;1031;-68
2021/09/12 03:35:43;;;;;;;;;;;21.80;58.40;;;;;;491564;240;952;-68
2021/09/12 03:37:45;;;;;;;;;;;21.90;58.20;;;;;;491446;240;1159;-68
2021/09/12 03:39:46;;;;;;;;;;;21.80;58.10;;;;;;491599;240;952;-68
2021/09/12 03:41:47;;;;;;;;;;;21.80;58.20;;;;;;491467;240;2188;-68
2021/09/12 03:43:49;;;;;;;;;;;21.80;58.30;;;;;;491654;240;1024;-68
2021/09/12 03:45:50;;;;;;;;;;;21.70;58.20;;;;;;491659;240;1302;-67
2021/09/12 03:47:51;;;;;;;;;;;21.70;58.20;;;;;;491658;240;1046;-68
2021/09/12 03:49:53;;;;;;;;;;;21.70;58.40;;;;;;491644;240;963;-68
2021/09/12 03:51:54;;;;;;;;;;;21.70;58.50;;;;;;491535;240;1465;-68
2021/09/12 03:53:55;;;;;;;;;;;21.70;58.40;;;;;;491635;240;966;-68
2021/09/12 03:55:57;;;;;;;;;;;21.70;58.30;;;;;;491638;240;1209;-68
2021/09/12 03:57:58;;;;;;;;;;;21.70;58.20;;;;;;491627;240;1064;-68
2021/09/12 03:59:59;;;;;;;;;;;21.70;58.30;;;;;;491678;240;2180;-68
2021/09/12 04:02:01;;;;;;;;;;;21.60;58.30;;;;;;491632;240;1341;-68
2021/09/12 04:04:02;;;;;;;;;;;22.00;57.20;;;;;;491657;240;986;-68
2021/09/12 04:06:03;;;;;;;;;;;21.80;57.70;;;;;;491636;240;1251;-68
2021/09/12 04:08:05;;;;;;;;;;;21.70;58.10;;;;;;491571;240;1114;-67
2021/09/12 04:10:06;;;;;;;;;;;21.70;58.10;;;;;;491669;240;1064;-67
2021/09/12 04:12:07;;;;;;;;;;;21.70;58.20;;;;;;491624;240;1229;-67
2021/09/12 04:14:08;;;;;;;;;;;21.70;58.30;;;;;;491700;240;1028;-68
2021/09/12 04:16:10;;;;;;;;;;;21.70;58.30;;;;;;491632;240;1192;-67
2021/09/12 04:18:11;;;;;;;;;;;21.70;58.20;;;;;;491642;240;1110;-68
2021/09/12 04:20:12;;;;;;;;;;;21.70;58.10;;;;;;491608;240;2130;-67
2021/09/12 04:22:14;;;;;;;;;;;21.70;58.10;;;;;;491556;240;1194;-67
2021/09/12 04:24:15;;;;;;;;;;;21.60;58.10;;;;;;491654;240;950;-67
2021/09/12 04:26:16;;;;;;;;;;;21.60;58.30;;;;;;491575;240;1221;-68
2021/09/12 04:28:18;;;;;;;;;;;21.70;58.20;;;;;;491596;240;949;-68
2021/09/12 04:30:19;;;;;;;;;;;21.70;58.20;;;;;;491660;240;957;-68
2021/09/12 04:32:20;;;;;;;;;;;21.70;58.00;;;;;;491503;240;1171;-68
2021/09/12 04:34:22;;;;;;;;;;;21.80;58.00;;;;;;491617;240;994;-68
2021/09/12 04:36:23;;;;;;;;;;;21.80;57.90;;;;;;491623;240;1109;-68
2021/09/12 04:38:24;;;;;;;;;;;21.80;57.70;;;;;;491528;240;1198;-68
2021/09/12 04:40:26;;;;;;;;;;;21.80;57.80;;;;;;491628;240;2191;-68
2021/09/12 04:42:27;;;;;;;;;;;21.80;57.80;;;;;;491652;240;1081;-68
2021/09/12 04:44:28;;;;;;;;;;;21.70;58.00;;;;;;491678;240;996;-68
2021/09/12 04:46:30;;;;;;;;;;;21.70;58.00;;;;;;491617;240;1320;-68
2021/09/12 04:48:31;;;;;;;;;;;21.80;58.00;;;;;;491646;240;1017;-68
2021/09/12 04:50:32;;;;;;;;;;;21.80;57.70;;;;;;491614;240;1043;-68
2021/09/12 04:52:33;;;;;;;;;;;21.80;57.90;;;;;;491486;240;1214;-68
2021/09/12 04:54:35;;;;;;;;;;;21.70;58.00;;;;;;491562;240;1204;-68
2021/09/12 04:56:36;;;;;;;;;;;21.70;58.10;;;;;;491621;240;1371;-68
2021/09/12 04:58:37;;;;;;;;;;;21.70;58.10;;;;;;491597;240;954;-68
2021/09/12 05:00:39;;;;;;;;;;;21.80;57.90;;;;;;491608;240;2124;-68
2021/09/12 05:02:40;;;;;;;;;;;21.80;58.10;;;;;;491630;240;1146;-67
2021/09/12 05:04:41;;;;;;;;;;;21.70;58.10;;;;;;491682;240;1042;-68
2021/09/12 05:06:43;;;;;;;;;;;21.70;58.20;;;;;;491639;240;1532;-68
2021/09/12 05:08:44;;;;;;;;;;;21.70;58.10;;;;;;491648;240;1194;-68
2021/09/12 05:10:45;;;;;;;;;;;21.70;58.20;;;;;;491619;240;924;-68
2021/09/12 05:12:47;;;;;;;;;;;21.80;58.00;;;;;;491599;240;1073;-68
2021/09/12 05:14:48;;;;;;;;;;;21.70;58.10;;;;;;491643;240;1045;-68
2021/09/12 05:16:49;;;;;;;;;;;21.80;58.10;;;;;;491537;240;1217;-67
2021/09/12 05:18:51;;;;;;;;;;;21.80;58.10;;;;;;491607;240;1065;-68
2021/09/12 05:20:52;;;;;;;;;;;21.80;58.00;;;;;;491692;240;2124;-67
2021/09/12 05:22:53;;;;;;;;;;;21.80;58.10;;;;;;491667;240;1159;-67
2021/09/12 05:24:55;;;;;;;;;;;21.80;58.10;;;;;;491708;240;1175;-67
2021/09/12 05:26:56;;;;;;;;;;;21.70;58.20;;;;;;491614;240;1132;-67
2021/09/12 05:28:57;;;;;;;;;;;21.70;58.20;;;;;;491606;240;933;-68
2021/09/12 05:30:59;;;;;;;;;;;21.70;58.30;;;;;;491577;240;1228;-68
2021/09/12 05:33:00;;;;;;;;;;;21.70;58.40;;;;;;491630;240;1145;-68
2021/09/12 05:35:01;;;;;;;;;;;21.60;58.40;;;;;;491628;240;953;-68
2021/09/12 05:37:03;;;;;;;;;;;21.70;58.40;;;;;;491600;240;1136;-68
2021/09/12 05:39:04;;;;;;;;;;;21.70;58.40;;;;;;491624;240;1198;-68
2021/09/12 05:41:05;;;;;;;;;;;21.70;58.50;;;;;;491593;240;2172;-67
2021/09/12 05:43:06;;;;;;;;;;;21.60;58.40;;;;;;491618;240;997;-67
2021/09/12 05:45:08;;;;;;;;;;;21.70;58.40;;;;;;491635;240;1040;-68
2021/09/12 05:47:09;;;;;;;;;;;21.70;58.20;;;;;;491555;240;1317;-68
2021/09/12 05:49:10;;;;;;;;;;;21.70;58.30;;;;;;491668;240;1085;-68
2021/09/12 05:51:12;;;;;;;;;;;21.70;58.30;;;;;;491614;240;1194;-68
2021/09/12 05:53:14;;;;;;;;;;;21.70;58.30;;;;;;491657;240;1127;-68
2021/09/12 05:55:14;;;;;;;;;;;21.90;58.00;;;;;;491690;240;1437;-68
2021/09/12 05:57:16;;;;;;;;;;;21.90;57.90;;;;;;491525;240;1242;-67
2021/09/12 05:59:17;;;;;;;;;;;21.80;58.00;;;;;;491690;240;998;-68
2021/09/12 06:01:19;;;;;;;;;;;21.90;57.70;;;;;;491567;240;2120;-67
2021/09/12 06:03:20;;;;;;;;;;;21.90;57.80;;;;;;491687;240;1392;-67
2021/09/12 06:05:21;;;;;;;;;;;21.90;57.80;;;;;;491670;240;1033;-68
2021/09/12 06:07:22;;;;;;;;;;;21.90;57.90;;;;;;491636;240;1145;-68
2021/09/12 06:09:24;;;;;;;;;;;21.90;57.90;;;;;;491631;240;1163;-68
2021/09/12 06:11:25;;;;;;;;;;;22.10;57.10;;;;;;491628;240;1216;-67
2021/09/12 06:13:26;;;;;;;;;;;21.90;57.80;;;;;;491606;240;1156;-68
2021/09/12 06:15:28;;;;;;;;;;;21.80;58.20;;;;;;491619;240;1184;-68
2021/09/12 06:17:29;;;;;;;;;;;21.80;58.40;;;;;;491504;240;1173;-68
2021/09/12 06:19:30;;;;;;;;;;;21.80;58.40;;;;;;491632;240;1001;-68
2021/09/12 06:21:32;;;;;;;;;;;21.70;58.40;;;;;;491608;240;2125;-68
2021/09/12 06:23:33;;;;;;;;;;;21.80;58.60;;;;;;491692;240;1365;-68
2021/09/12 06:25:34;;;;;;;;;;;21.80;58.70;;;;;;491624;240;1179;-68
2021/09/12 06:27:36;;;;;;;;;;;21.70;58.70;;;;;;491562;240;947;-68
2021/09/12 06:29:37;;;;;;;;;;;21.80;58.70;;;;;;491613;240;1053;-68
2021/09/12 06:31:38;;;;;;;;;;;21.80;58.40;;;;;;491572;240;1210;-68
2021/09/12 06:33:40;;;;;;;;;;;21.90;58.40;;;;;;491619;240;1108;-68
2021/09/12 06:35:41;;;;;;;;;;;21.90;58.50;;;;;;491600;240;1255;-68
2021/09/12 06:37:42;;;;;;;;;;;21.80;58.60;;;;;;491662;240;1066;-68
2021/09/12 06:39:44;;;;;;;;;;;21.80;58.70;;;;;;491571;240;1186;-68
2021/09/12 06:41:45;;;;;;;;;;;21.80;58.80;;;;;;491528;240;2192;-68
2021/09/12 06:43:46;;;;;;;;;;;21.70;58.90;;;;;;491585;240;961;-67
2021/09/12 06:45:48;;;;;;;;;;;21.70;58.90;;;;;;491693;240;1163;-67
2021/09/12 06:47:49;;;;;;;;;;;21.80;59.00;;;;;;491656;240;1070;-68
2021/09/12 06:49:50;;;;;;;;;;;21.80;59.00;;;;;;491713;240;986;-68
2021/09/12 06:51:52;;;;;;;;;;;21.80;58.90;;;;;;491555;240;1217;-68
2021/09/12 06:53:53;;;;;;;;;;;21.80;59.00;;;;;;491656;240;1144;-67
2021/09/12 06:55:54;;;;;;;;;;;21.80;59.00;;;;;;491586;240;1226;-67
2021/09/12 06:57:56;;;;;;;;;;;21.90;59.00;;;;;;491652;240;1131;-68
2021/09/12 06:59:57;;;;;;;;;;;21.90;58.90;;;;;;491647;240;1042;-67
2021/09/12 07:01:58;;;;;;;;;;;21.90;58.80;;;;;;491567;240;2118;-67
2021/09/12 07:04:00;;;;;;;;;;;21.90;58.70;;;;;;491636;240;944;-68
2021/09/12 07:06:01;;;;;;;;;;;21.90;58.80;;;;;;491616;240;999;-67
2021/09/12 07:08:02;;;;;;;;;;;21.80;59.00;;;;;;491614;240;1041;-68
2021/09/12 07:10:03;;;;;;;;;;;21.90;59.20;;;;;;491573;240;1205;-68
2021/09/12 07:12:05;;;;;;;;;;;21.80;59.20;;;;;;491627;240;1027;-67
2021/09/12 07:14:06;;;;;;;;;;;21.80;59.20;;;;;;491669;240;1004;-69
2021/09/12 07:16:07;;;;;;;;;;;21.80;59.30;;;;;;491618;240;923;-68
2021/09/12 07:18:09;;;;;;;;;;;21.80;59.40;;;;;;491590;240;1034;-67
2021/09/12 07:20:10;;;;;;;;;;;21.80;59.40;;;;;;491668;240;956;-68
2021/09/12 07:22:11;;;;;;;;;;;21.90;59.30;;;;;;491585;240;2109;-67
2021/09/12 07:24:13;;;;;;;;;;;21.90;59.30;;;;;;491730;240;1132;-68
2021/09/12 07:26:14;;;;;;;;;;;21.90;59.20;;;;;;491624;240;1170;-67
2021/09/12 07:28:15;;;;;;;;;;;21.90;59.40;;;;;;491659;240;1129;-68
2021/09/12 07:30:17;;;;;;;;;;;21.80;59.40;;;;;;491678;240;959;-68
2021/09/12 07:32:18;;;;;;;;;;;21.90;59.50;;;;;;491562;240;1061;-67
2021/09/12 07:34:19;;;;;;;;;;;21.80;59.40;;;;;;491635;240;969;-68
2021/09/12 07:36:21;;;;;;;;;;;21.80;59.50;;;;;;491571;240;1232;-68
2021/09/12 07:38:22;;;;;;;;;;;21.80;59.60;;;;;;491675;240;1085;-68
2021/09/12 07:40:23;;;;;;;;;;;21.80;59.50;;;;;;491584;240;1238;-68
2021/09/12 07:42:25;;;;;;;;;;;21.70;59.50;;;;;;491589;240;2203;-67
2021/09/12 07:44:26;;;;;;;;;;;21.70;59.70;;;;;;491642;240;1054;-68
2021/09/12 07:46:27;;;;;;;;;;;21.70;59.70;;;;;;491582;240;1216;-68
2021/09/12 07:48:28;;;;;;;;;;;21.70;59.80;;;;;;491723;240;1131;-67
2021/09/12 07:50:30;;;;;;;;;;;21.70;59.90;;;;;;491673;240;1183;-68
2021/09/12 07:52:31;;;;;;;;;;;21.70;59.80;;;;;;491695;240;1336;-67
2021/09/12 07:54:32;;;;;;;;;;;21.80;59.70;;;;;;491623;240;1114;-67
2021/09/12 07:56:34;;;;;;;;;;;21.70;59.70;;;;;;491574;240;1191;-68
2021/09/12 07:58:35;;;;;;;;;;;21.70;59.90;;;;;;491572;240;1019;-68
2021/09/12 08:00:37;;;;;;;;;;;21.70;60.00;;;;;;491677;240;1150;-68
2021/09/12 08:02:38;;;;;;;;;;;21.70;60.00;;;;;;491607;240;2116;-68
2021/09/12 08:04:39;;;;;;;;;;;21.70;59.80;;;;;;491623;240;961;-68
2021/09/12 08:06:40;;;;;;;;;;;21.70;59.80;;;;;;491617;240;1344;-68
2021/09/12 08:08:42;;;;;;;;;;;21.80;59.90;;;;;;491624;240;987;-68
2021/09/12 08:10:43;;;;;;;;;;;22.10;59.00;;;;;;491598;240;1167;-68
2021/09/12 08:12:44;;;;;;;;;;;21.80;59.50;;;;;;491660;240;1089;-68
2021/09/12 08:14:46;;;;;;;;;;;21.70;59.70;;;;;;491675;240;929;-68
2021/09/12 08:16:47;;;;;;;;;;;21.80;59.80;;;;;;491688;240;1224;-67
2021/09/12 08:18:48;;;;;;;;;;;21.70;60.00;;;;;;491611;240;988;-68
2021/09/12 08:20:50;;;;;;;;;;;21.80;59.80;;;;;;491661;240;1200;-67
2021/09/12 08:22:51;;;;;;;;;;;21.80;59.90;;;;;;491697;240;2124;-67
2021/09/12 08:24:52;;;;;;;;;;;21.80;59.80;;;;;;491682;240;1160;-67
2021/09/12 08:26:54;;;;;;;;;;;21.70;59.90;;;;;;491615;240;1220;-67
2021/09/12 08:28:55;;;;;;;;;;;21.80;60.00;;;;;;491652;240;1019;-68
2021/09/12 08:30:56;;;;;;;;;;;21.80;59.90;;;;;;491564;240;1246;-67
2021/09/12 08:32:58;;;;;;;;;;;21.80;59.80;;;;;;491616;240;1062;-67
2021/09/12 08:34:59;;;;;;;;;;;21.80;59.90;;;;;;491677;240;951;-68
2021/09/12 08:37:00;;;;;;;;;;;21.80;60.00;;;;;;491520;240;1175;-67
2021/09/12 08:39:01;;;;;;;;;;;21.80;60.00;;;;;;491680;240;968;-67
2021/09/12 08:41:03;;;;;;;;;;;21.80;60.00;;;;;;491484;240;1190;-68
2021/09/12 08:43:06;;;;;;;;;;;21.80;60.00;;;;;;491664;240;2196;-67
2021/09/12 08:45:06;;;;;;;;;;;21.70;60.10;;;;;;491737;240;1332;-67
2021/09/12 08:47:07;;;;;;;;;;;21.70;60.10;;;;;;491649;240;1182;-67
2021/09/12 08:49:09;;;;;;;;;;;21.80;60.10;;;;;;491698;240;944;-68
2021/09/12 08:51:10;;;;;;;;;;;21.80;59.80;;;;;;491660;240;1126;-68
2021/09/12 08:53:11;;;;;;;;;;;21.80;59.90;;;;;;491648;240;987;-68
2021/09/12 08:55:13;;;;;;;;;;;22.00;59.60;;;;;;491671;240;1205;-68
2021/09/12 08:57:16;;;;;;;;;;;22.10;59.30;;;;;;491618;240;1193;-68
2021/09/12 08:59:15;;;;;;;;;;;22.00;59.30;;;;;;491714;240;1406;-67
2021/09/12 09:01:17;;;;;;;;;;;22.00;59.30;;;;;;491560;240;1201;-67
2021/09/12 09:03:18;;;;;;;;;;;22.10;59.20;;;;;;491647;240;2116;-68
2021/09/12 09:05:19;;;;;;;;;;;22.00;59.40;;;;;;491584;240;1211;-68
2021/09/12 09:07:21;;;;;;;;;;;22.10;59.30;;;;;;491513;240;1165;-67
2021/09/12 09:09:22;;;;;;;;;;;22.10;59.20;;;;;;491629;240;1076;-68
2021/09/12 09:11:23;;;;;;;;;;;22.20;59.00;;;;;;491450;240;1292;-68
2021/09/12 09:13:24;;;;;;;;;;;22.10;59.10;;;;;;491621;240;998;-67
2021/09/12 09:15:26;;;;;;;;;;;22.00;59.30;;;;;;491613;240;969;-68
2021/09/12 09:17:27;;;;;;;;;;;22.00;59.50;;;;;;491510;240;1232;-68
2021/09/12 09:19:28;;;;;;;;;;;22.00;59.40;;;;;;491621;240;1088;-68
2021/09/12 09:21:30;;;;;;;;;;;22.10;59.20;;;;;;491517;240;1188;-68
2021/09/12 09:23:31;;;;;;;;;;;22.10;59.10;;;;;;491640;240;2132;-67
2021/09/12 09:25:32;;;;;;;;;;;22.00;59.30;;;;;;491578;240;1269;-68
2021/09/12 09:27:34;;;;;;;;;;;22.00;59.40;;;;;;491585;240;1128;-67
2021/09/12 09:29:35;;;;;;;;;;;22.00;59.50;;;;;;491656;240;973;-68
2021/09/12 09:31:36;;;;;;;;;;;22.00;59.40;;;;;;491596;240;1246;-68
2021/09/12 09:33:38;;;;;;;;;;;22.00;59.40;;;;;;491641;240;1060;-68
2021/09/12 09:35:39;;;;;;;;;;;21.90;59.60;;;;;;491637;240;1176;-68
2021/09/12 09:37:40;;;;;;;;;;;22.00;59.60;;;;;;491589;240;1221;-68
2021/09/12 09:39:42;;;;;;;;;;;22.00;59.50;;;;;;491670;240;1144;-68
2021/09/12 09:41:43;;;;;;;;;;;22.10;59.30;;;;;;491462;240;1181;-68
2021/09/12 09:43:44;;;;;;;;;;;22.10;59.30;;;;;;491594;240;2120;-68
2021/09/12 09:45:46;;;;;;;;;;;22.10;59.30;;;;;;491615;240;1037;-68
2021/09/12 09:47:47;;;;;;;;;;;22.20;59.00;;;;;;491668;240;974;-68
2021/09/12 09:49:48;;;;;;;;;;;22.00;59.20;;;;;;491634;240;1119;-68
2021/09/12 09:51:50;;;;;;;;;;;22.00;59.40;;;;;;491612;240;1093;-68
2021/09/12 09:53:51;;;;;;;;;;;22.00;59.50;;;;;;491656;240;1339;-68
2021/09/12 09:55:52;;;;;;;;;;;22.00;59.50;;;;;;491623;240;1151;-68
2021/09/12 09:57:53;;;;;;;;;;;22.00;59.50;;;;;;491650;240;1132;-68
2021/09/12 09:59:55;;;;;;;;;;;21.90;59.60;;;;;;491664;240;967;-67
2021/09/12 10:01:56;;;;;;;;;;;22.00;59.70;;;;;;491550;240;1101;-68
2021/09/12 10:03:58;;;;;;;;;;;22.00;59.60;;;;;;491625;240;2192;-68
2021/09/12 10:05:59;;;;;;;;;;;22.00;59.50;;;;;;491611;240;1180;-68
2021/09/12 10:08:00;;;;;;;;;;;22.00;59.50;;;;;;491631;240;1130;-68
2021/09/12 10:10:01;;;;;;;;;;;22.40;59.20;;;;;;491696;240;1022;-68
2021/09/12 10:12:03;;;;;;;;;;;22.60;57.60;;;;;;491527;240;1182;-68
2021/09/12 10:14:04;;;;;;;;;;;22.40;58.50;;;;;;491611;240;1115;-67
2021/09/12 10:16:06;;;;;;;;;;;22.10;59.00;;;;;;491589;240;1296;-67
2021/09/12 10:18:07;;;;;;;;;;;22.10;59.30;;;;;;491631;240;1160;-67
2021/09/12 10:20:08;;;;;;;;;;;22.00;59.40;;;;;;491627;240;1065;-68
2021/09/12 10:22:10;;;;;;;;;;;22.00;59.60;;;;;;491560;240;1103;-68
2021/09/12 10:24:11;;;;;;;;;;;22.00;59.60;;;;;;491631;240;2113;-67
2021/09/12 10:26:12;;;;;;;;;;;22.00;59.40;;;;;;491608;240;1324;-67
2021/09/12 10:28:14;;;;;;;;;;;22.00;59.50;;;;;;491636;240;1145;-67
2021/09/12 10:30:15;;;;;;;;;;;22.00;59.60;;;;;;491681;240;960;-68
2021/09/12 10:32:16;;;;;;;;;;;21.90;59.70;;;;;;491592;240;978;-68
2021/09/12 10:34:18;;;;;;;;;;;22.00;59.60;;;;;;491633;240;1073;-68
2021/09/12 10:36:19;;;;;;;;;;;22.10;59.50;;;;;;491601;240;1139;-67
2021/09/12 10:38:20;;;;;;;;;;;22.10;59.40;;;;;;491707;240;960;-68
2021/09/12 10:40:22;;;;;;;;;;;22.10;59.40;;;;;;491638;240;955;-68
2021/09/12 10:42:23;;;;;;;;;;;22.10;59.50;;;;;;491561;240;2140;-67
2021/09/12 10:44:24;;;;;;;;;;;22.00;59.50;;;;;;491637;240;1148;-67
2021/09/12 10:46:26;;;;;;;;;;;22.00;59.50;;;;;;491550;240;1201;-68
2021/09/12 10:48:27;;;;;;;;;;;22.10;59.40;;;;;;491590;240;1075;-68
2021/09/12 10:50:28;;;;;;;;;;;22.10;59.40;;;;;;491632;240;959;-68
2021/09/12 10:52:30;;;;;;;;;;;22.00;59.60;;;;;;491595;240;1143;-67
2021/09/12 10:54:32;;;;;;;;;;;22.10;59.40;;;;;;491628;240;1051;-67
2021/09/12 10:56:33;;;;;;;;;;;22.00;59.60;;;;;;491505;240;1408;-68
2021/09/12 10:58:34;;;;;;;;;;;22.00;59.50;;;;;;491689;240;948;-68
2021/09/12 11:00:35;;;;;;;;;;;22.00;59.60;;;;;;491624;240;1025;-67
2021/09/12 11:02:42;;;;;;;;;;;22.00;59.70;;;;;;491551;240;2175;-67
2021/09/12 11:04:38;;;;;;;;;;;22.00;59.70;;;;;;491697;240;1893;-68
2021/09/12 11:06:39;;;;;;;;;;;22.10;59.60;;;;;;491606;240;1139;-68
2021/09/12 11:08:41;;;;;;;;;;;22.10;59.60;;;;;;491625;240;1067;-68
2021/09/12 11:10:42;;;;;;;;;;;22.10;59.60;;;;;;491669;240;992;-67
2021/09/12 11:12:43;;;;;;;;;;;22.00;59.70;;;;;;491488;240;1152;-68
2021/09/12 11:14:46;;;;;;;;;;;22.20;59.30;;;;;;491628;240;1028;-68
2021/09/12 11:16:46;;;;;;;;;;;22.20;59.40;;;;;;491598;240;1502;-68
2021/09/12 11:18:47;;;;;;;;;;;22.20;59.40;;;;;;491615;240;1156;-68
2021/09/12 11:20:48;;;;;;;;;;;22.20;59.40;;;;;;491644;240;929;-67
2021/09/12 11:22:50;;;;;;;;;;;22.20;59.40;;;;;;491515;240;2120;-68
2021/09/12 11:24:51;;;;;;;;;;;22.10;59.40;;;;;;491567;240;1047;-68
2021/09/12 11:26:53;;;;;;;;;;;22.10;59.50;;;;;;491461;240;1165;-68
2021/09/12 11:28:54;;;;;;;;;;;22.10;59.40;;;;;;491625;240;1102;-68
2021/09/12 11:30:55;;;;;;;;;;;22.20;59.40;;;;;;491537;240;1200;-68
2021/09/12 11:32:57;;;;;;;;;;;22.20;59.40;;;;;;491539;240;1150;-68
2021/09/12 11:34:58;;;;;;;;;;;22.10;59.50;;;;;;491570;240;1062;-68
2021/09/12 11:36:59;;;;;;;;;;;22.10;59.50;;;;;;491521;240;1216;-67
2021/09/12 11:39:00;;;;;;;;;;;22.20;59.40;;;;;;491639;240;1146;-68
2021/09/12 11:41:02;;;;;;;;;;;22.30;59.30;;;;;;491680;240;1152;-68
2021/09/12 11:43:03;;;;;;;;;;;22.20;59.30;;;;;;491515;240;2204;-68
2021/09/12 11:45:05;;;;;;;;;;;22.20;59.40;;;;;;491558;240;949;-67
2021/09/12 11:47:06;;;;;;;;;;;22.20;59.40;;;;;;491546;240;1138;-68
2021/09/12 11:49:07;;;;;;;;;;;22.20;59.40;;;;;;491548;240;1200;-67
2021/09/12 11:51:09;;;;;;;;;;;22.20;59.40;;;;;;491535;240;1128;-68
2021/09/12 11:53:10;;;;;;;;;;;22.20;59.30;;;;;;491543;240;1146;-68
2021/09/12 11:55:11;;;;;;;;;;;22.40;58.80;;;;;;491613;240;1054;-68
2021/09/12 11:57:13;;;;;;;;;;;22.40;58.80;;;;;;491538;240;1148;-68
2021/09/12 11:59:16;;;;;;;;;;;22.60;58.20;;;;;;491572;240;949;-68